Terminal Aerodrome Forecast
Issued by NWS

Home | Current Version | Previous Version | Text Only | Print | Product List | Glossary On
Versions: 1 2 3 4 5 6 7 8 9 10 11 12 13 14 15 16 17 18 19 20 21 22 23
000
FTUS46 KEKA 251143
TAFCEC
TAF
KCEC 251143Z 2512/2612 17025G35KT P6SM -SHRA BKN045 OVC090
      WS010/18060KT
     FM251330 19030G50KT 6SM -SHRA SCT025 OVC030
     FM251800 19025G40KT 6SM -TSRA BKN025CB OVC080
     FM252200 22015KT P6SM -SHRA BKN025
     FM260300 15008KT 3SM -SHRA BR SCT007 OVC025=

USA.gov is the U.S. government's official web portal to all federal, state and local government web resources and services.